Time;durP1;ratioP1;P1;durP2;ratioP2;P2;SDS_P1;SDS_P2;PMS_P1;PMS_P2;Temp;Humidity;BMP_temperature;BMP_pressure;BME280_temperature;BME280_humidity;BME280_pressure;Samples;Min_cycle;Max_cycle;Signal;HPM_P1;HPM_P2
2021/01/29 00:02:24;;;;;;;67.30;33.15;;;11.60;99.90;;;11.73;91.49;99638.00;4824262;29;20173;-75
2021/01/29 00:04:52;;;;;;;63.53;33.88;;;11.60;99.90;;;11.73;91.72;99641.53;4824414;29;20050;-75
2021/01/29 00:07:19;;;;;;;67.28;32.00;;;11.60;99.90;;;11.77;91.54;99644.97;4824271;29;20508;-75
2021/01/29 00:09:47;;;;;;;59.25;32.08;;;11.60;99.90;;;11.76;91.51;99641.47;4824328;29;20042;-75
2021/01/29 00:12:15;;;;;;;57.83;31.77;;;11.60;99.90;;;11.70;91.62;99622.22;4824113;29;20071;-75
2021/01/29 00:14:42;;;;;;;56.22;30.23;;;11.60;99.90;;;11.75;91.69;99629.13;4824167;29;20054;-75
2021/01/29 00:17:09;;;;;;;50.83;29.42;;;11.60;99.90;;;11.78;91.84;99621.09;4824115;29;20463;-75
2021/01/29 00:19:38;;;;;;;46.67;29.67;;;11.60;99.90;;;11.75;91.78;99626.47;4823104;29;20064;-75
2021/01/29 00:22:05;;;;;;;57.42;32.22;;;11.50;99.90;;;11.70;92.07;99615.16;4822990;29;20516;-75
2021/01/29 00:24:33;;;;;;;59.53;33.30;;;11.50;99.90;;;11.72;92.35;99608.03;4824014;29;20055;-75
2021/01/29 00:27:01;;;;;;;56.15;33.58;;;11.50;99.90;;;11.59;92.78;99593.34;4822834;29;20091;-75
2021/01/29 00:29:28;;;;;;;60.35;34.63;;;11.40;99.90;;;11.60;93.05;99588.94;4823936;29;20491;-75
2021/01/29 00:31:56;;;;;;;67.20;36.88;;;11.40;99.90;;;11.56;93.36;99588.16;4824210;29;20145;-75
2021/01/29 00:34:23;;;;;;;69.40;37.40;;;11.40;99.90;;;11.53;93.53;99577.66;4822818;29;20504;-75
2021/01/29 00:36:51;;;;;;;66.25;36.70;;;11.30;99.90;;;11.57;93.80;99567.84;4824067;29;20198;-75
2021/01/29 00:39:19;;;;;;;59.30;34.65;;;11.30;99.90;;;11.58;93.76;99566.91;4822701;29;20058;-75
2021/01/29 00:41:46;;;;;;;65.47;36.42;;;11.40;99.90;;;11.54;93.91;99560.84;4823753;29;20181;-75
2021/01/29 00:44:14;;;;;;;74.88;34.78;;;11.30;99.90;;;11.36;93.81;99524.31;4823698;29;20058;-75
2021/01/29 00:46:42;;;;;;;72.38;34.63;;;11.30;99.90;;;11.55;94.04;99554.66;4822526;29;20149;-75
2021/01/29 00:49:09;;;;;;;65.85;33.97;;;11.30;99.90;;;11.51;94.18;99544.19;4823811;29;20051;-74
2021/01/29 00:51:37;;;;;;;67.15;33.10;;;11.30;99.90;;;11.47;94.38;99546.06;4823832;29;20484;-75
2021/01/29 00:54:05;;;;;;;71.72;33.38;;;11.30;99.90;;;11.51;94.30;99533.59;4822479;29;20394;-75
2021/01/29 00:56:37;;;;;;;75.15;34.80;;;11.30;99.90;;;11.38;94.44;99503.13;4822439;29;20054;-75
2021/01/29 00:59:11;;;;;;;77.22;36.03;;;11.30;99.90;;;11.52;94.59;99517.66;4822699;29;20054;-75
2021/01/29 01:01:47;;;;;;;66.22;35.13;;;11.30;99.90;;;11.63;94.30;99512.91;4823805;29;20520;-75
2021/01/29 01:04:15;;;;;;;78.53;38.03;;;11.40;99.90;;;11.61;94.18;99511.25;4822389;29;20054;-75
2021/01/29 01:06:43;;;;;;;77.25;39.47;;;11.40;99.90;;;11.53;94.03;99497.34;4823439;29;20570;-75
2021/01/29 01:09:29;;;;;;;78.85;38.50;;;11.40;99.90;;;11.61;93.94;99500.66;4826690;29;20081;-75
2021/01/29 01:11:57;;;;;;;70.55;36.95;;;11.40;99.90;;;11.56;94.02;99498.13;4825623;29;20111;-75
2021/01/29 01:14:43;;;;;;;71.80;36.40;;;11.40;99.90;;;11.61;93.95;99498.84;4826985;29;20526;-75
2021/01/29 01:17:47;;;;;;;69.00;35.00;;;11.40;99.90;;;11.71;93.53;99494.19;4823408;29;20058;-74
2021/01/29 01:20:39;;;;;;;66.97;33.63;;;11.50;99.90;;;11.67;93.21;99480.16;4825713;29;20050;-75
2021/01/29 01:25:54;;;;;;;63.03;32.25;;;11.40;99.90;;;11.52;94.09;99469.13;4826574;29;20054;-75
2021/01/29 01:28:44;;;;;;;69.43;33.53;;;11.40;99.90;;;11.11;93.92;99385.69;4817241;29;20480;-75
2021/01/29 01:31:20;;;;;;;61.33;31.77;;;11.40;99.90;;;11.14;93.79;99382.09;4825642;29;20054;-75
2021/01/29 01:34:07;;;;;;;63.35;31.67;;;11.40;99.90;;;11.59;93.97;99441.56;4825346;29;20110;-75
2021/01/29 01:36:57;;;;;;;62.35;31.58;;;11.40;99.90;;;11.57;94.20;99440.75;4825463;29;20062;-75
2021/01/29 01:39:44;;;;;;;63.28;32.30;;;11.40;99.90;;;11.53;94.23;99432.03;4826330;29;20492;-75
2021/01/29 01:42:12;;;;;;;62.50;30.75;;;11.40;99.90;;;11.60;94.33;99436.22;4826554;29;20141;-75
2021/01/29 01:44:43;;;;;;;62.50;31.33;;;11.40;99.90;;;11.52;94.36;99427.63;4824966;29;22025;-74
2021/01/29 01:47:25;;;;;;;58.22;30.58;;;11.40;99.90;;;11.50;94.59;99410.06;4825170;29;20094;-75
2021/01/29 01:50:16;;;;;;;61.10;30.05;;;11.40;99.90;;;11.47;94.63;99395.16;4826635;29;20192;-75
2021/01/29 01:52:44;;;;;;;49.00;26.27;;;11.30;99.90;;;11.53;94.94;99394.09;4825118;29;20058;-75
2021/01/29 01:55:32;;;;;;;59.45;27.55;;;11.30;99.90;;;11.54;94.86;99394.03;4825238;29;20428;-75
2021/01/29 01:58:23;;;;;;;55.22;27.10;;;11.30;99.90;;;11.52;94.97;99379.97;4825373;29;20069;-75
2021/01/29 02:01:10;;;;;;;49.80;26.83;;;11.30;99.90;;;11.06;94.77;99287.09;4826405;29;20565;-75
2021/01/29 02:04:04;;;;;;;45.53;26.35;;;11.30;99.90;;;11.69;94.28;99360.94;4826045;29;20059;-75
2021/01/29 02:06:57;;;;;;;48.20;27.13;;;11.50;99.90;;;11.64;94.11;99353.09;4826315;29;20507;-75
2021/01/29 02:09:48;;;;;;;54.00;28.45;;;11.50;99.90;;;11.60;93.69;99348.81;4825974;29;20126;-75
2021/01/29 02:12:16;;;;;;;49.75;25.95;;;11.50;99.90;;;11.63;93.67;99346.06;4824746;29;20058;-75
2021/01/29 02:14:58;;;;;;;49.10;25.98;;;11.50;99.90;;;11.65;93.41;99343.41;4824896;29;20066;-74
2021/01/29 02:17:56;;;;;;;48.10;25.08;;;11.50;99.90;;;11.53;93.73;99320.84;4824787;29;20111;-74
2021/01/29 02:21:06;;;;;;;48.00;26.52;;;11.40;99.90;;;11.65;93.67;99320.44;4825130;29;20454;-75
2021/01/29 02:24:54;;;;;;;47.53;24.85;;;11.50;99.90;;;11.62;93.61;99312.56;4811002;29;20475;-75
2021/01/29 02:27:48;;;;;;;45.05;24.08;;;11.50;99.90;;;11.45;93.77;99295.50;4824698;29;20188;-76
2021/01/29 02:30:55;;;;;;;42.80;23.70;;;11.50;99.90;;;11.41;94.50;99288.59;4825512;29;20054;-77
2021/01/29 02:34:39;;;;;;;41.53;22.70;;;11.30;99.90;;;11.33;94.63;99278.25;4824635;29;20593;-77
2021/01/29 02:38:18;;;;;;;35.83;22.13;;;11.30;99.90;;;11.20;95.62;99265.47;4754662;30;20528;-77
2021/01/29 02:41:03;;;;;;;34.07;20.80;;;11.20;99.90;;;11.12;96.08;99252.50;4754502;30;20129;-76
2021/01/29 02:43:49;;;;;;;30.50;19.25;;;11.00;99.90;;;11.12;96.61;99241.91;4824498;29;20111;-76
2021/01/29 02:46:48;;;;;;;29.02;16.95;;;11.00;99.90;;;11.26;96.28;99234.41;4825549;29;20183;-75
2021/01/29 02:49:55;;;;;;;21.88;15.15;;;11.20;99.90;;;11.22;96.37;99200.13;4825794;29;20433;-75
2021/01/29 02:52:53;;;;;;;19.85;13.63;;;11.20;99.90;;;11.29;96.12;99209.59;4825696;29;20065;-75
2021/01/29 02:55:54;;;;;;;16.83;13.02;;;11.20;99.90;;;11.33;96.42;99212.09;4825195;29;20062;-76
2021/01/29 02:58:45;;;;;;;17.63;12.25;;;11.20;99.90;;;11.25;96.24;99185.00;4824209;29;20061;-75
2021/01/29 03:01:37;;;;;;;18.40;14.05;;;11.30;99.90;;;11.43;95.96;99199.41;4825300;29;20157;-75
2021/01/29 03:04:29;;;;;;;16.05;13.20;;;11.30;99.90;;;11.43;96.05;99181.75;4824234;29;20053;-75
2021/01/29 03:07:06;;;;;;;17.13;14.82;;;11.30;99.90;;;11.41;95.74;99159.75;4824115;29;20785;-76
2021/01/29 03:09:41;;;;;;;16.13;14.43;;;11.40;99.90;;;11.56;95.55;99174.22;4823908;29;20158;-76
2021/01/29 03:12:42;;;;;;;16.25;14.05;;;11.40;99.90;;;11.40;96.02;99176.53;4806896;29;20153;-75
2021/01/29 03:15:33;;;;;;;17.92;16.02;;;11.30;99.90;;;11.26;96.44;99130.31;4825313;29;20069;-75
2021/01/29 03:18:21;;;;;;;;;;;11.30;99.90;;;11.41;96.71;99149.16;4825708;29;20065;-75
2021/01/29 03:21:13;;;;;;;19.05;16.30;;;11.30;99.90;;;11.39;96.68;99151.00;4825283;29;19935;-76
2021/01/29 03:24:06;;;;;;;17.95;16.05;;;11.20;99.90;;;11.46;96.67;99151.63;4824989;29;20138;-75
2021/01/29 03:26:58;;;;;;;21.08;17.25;;;11.20;99.90;;;11.40;96.43;99143.94;4824839;29;20084;-77
2021/01/29 03:29:51;;;;;;;18.95;15.77;;;11.30;99.90;;;11.19;96.76;99113.78;4824905;29;20182;-76
2021/01/29 03:32:40;;;;;;;19.13;15.60;;;11.20;99.90;;;11.28;97.35;99139.94;4824629;29;20057;-75
2021/01/29 03:35:30;;;;;;;16.70;13.77;;;11.10;99.90;;;11.33;97.89;99132.69;4825099;29;20057;-76
2021/01/29 03:38:23;;;;;;;14.80;12.80;;;11.10;99.90;;;11.32;97.33;99133.63;4825054;29;20065;-75
2021/01/29 03:41:20;;;;;;;15.25;13.45;;;11.10;99.90;;;11.22;97.42;99126.91;4825294;29;20065;-75
2021/01/29 03:44:17;;;;;;;15.80;13.95;;;11.00;99.90;;;11.23;97.69;99133.91;4824728;29;20146;-75
2021/01/29 03:47:09;;;;;;;20.15;13.93;;;11.00;99.90;;;11.24;97.60;99124.22;4824601;29;20519;-76
2021/01/29 03:50:28;;;;;;;13.85;11.90;;;11.00;99.90;;;11.17;97.64;99123.53;4786175;30;20051;-76
2021/01/29 03:53:34;;;;;;;14.85;10.52;;;11.00;99.90;;;11.12;97.89;99122.84;4786432;30;20127;-75
2021/01/29 03:56:36;;;;;;;12.43;10.10;;;11.00;99.90;;;11.04;97.85;99116.09;4822990;29;20069;-76
2021/01/29 03:59:30;;;;;;;10.30;8.30;;;10.90;99.90;;;10.92;97.99;99112.06;4824732;29;20073;-75
2021/01/29 04:02:29;;;;;;;11.40;8.13;;;10.80;99.90;;;10.94;98.34;99115.53;4819145;29;20062;-76
2021/01/29 04:05:46;;;;;;;6.95;6.20;;;10.80;99.90;;;10.83;98.32;99096.53;4785910;29;20488;-76
2021/01/29 04:08:43;;;;;;;7.90;5.78;;;10.70;99.90;;;10.76;98.29;99095.88;4786006;30;20120;-76
2021/01/29 04:11:35;;;;;;;8.00;5.88;;;10.70;99.90;;;10.86;98.55;99107.00;4819780;29;20077;-75
2021/01/29 04:14:32;;;;;;;6.30;5.45;;;10.70;99.90;;;10.77;98.14;99094.97;4823086;29;20054;-76
2021/01/29 04:17:03;;;;;;;6.78;4.32;;;10.60;99.90;;;10.74;98.15;99092.41;4824198;29;20070;-76
2021/01/29 04:19:34;;;;;;;6.95;3.63;;;10.60;99.90;;;10.70;97.69;99090.78;4824175;29;20053;-76
2021/01/29 04:22:07;;;;;;;8.57;4.05;;;10.50;99.90;;;10.69;97.63;99082.91;4824153;29;20517;-77
2021/01/29 04:24:41;;;;;;;7.07;4.35;;;10.60;99.90;;;10.72;97.01;99080.16;4822955;29;20500;-76
2021/01/29 04:27:13;;;;;;;9.98;4.35;;;10.60;99.90;;;10.56;97.08;99055.16;4823980;29;20148;-76
2021/01/29 04:29:45;;;;;;;8.85;4.68;;;10.60;99.90;;;10.67;97.07;99082.97;4823035;29;20412;-76
2021/01/29 04:32:16;;;;;;;9.15;4.30;;;10.50;99.90;;;10.65;97.12;99083.91;4824045;29;20061;-76
2021/01/29 04:34:50;;;;;;;11.43;4.93;;;10.50;99.90;;;10.62;96.99;99079.63;4824142;29;20046;-76
2021/01/29 04:37:21;;;;;;;15.55;5.05;;;10.50;99.90;;;10.70;96.94;99088.13;4823972;29;20087;-76
2021/01/29 04:39:54;;;;;;;13.63;5.35;;;10.50;99.90;;;10.63;96.79;99067.25;4823771;29;20054;-76
2021/01/29 04:42:44;;;;;;;13.20;5.53;;;10.60;99.90;;;10.72;96.77;99093.41;4823393;29;20107;-77
2021/01/29 04:45:28;;;;;;;16.15;5.07;;;10.50;99.90;;;10.79;96.20;99097.56;4823962;29;20058;-75
2021/01/29 04:48:03;;;;;;;19.67;5.85;;;10.60;99.90;;;10.80;95.80;99089.56;4823866;29;20050;-77
2021/01/29 04:50:42;;;;;;;17.70;5.68;;;10.60;99.90;;;10.63;95.46;99059.31;4822802;29;20058;-76
2021/01/29 04:53:52;;;;;;;18.30;5.82;;;10.60;99.90;;;10.88;95.16;99094.59;4823784;29;20059;-76
2021/01/29 04:56:45;;;;;;;13.75;5.80;;;10.70;99.90;;;10.82;94.99;99097.44;4823743;29;20068;-77
2021/01/29 04:59:31;;;;;;;12.43;4.88;;;10.70;99.90;;;10.73;95.20;99103.91;4822710;29;20081;-75
2021/01/29 05:03:03;;;;;;;17.92;6.32;;;10.60;99.90;;;10.67;95.48;99082.09;4823734;29;20444;-76
2021/01/29 05:06:18;;;;;;;17.50;4.68;;;10.60;99.90;;;10.67;95.58;99090.91;4823757;29;20056;-76
2021/01/29 05:09:31;;;;;;;22.55;4.97;;;10.60;99.90;;;10.64;95.82;99087.50;4823648;29;20065;-75
2021/01/29 05:12:48;;;;;;;23.17;5.78;;;10.50;99.90;;;10.68;95.89;99086.47;4822307;29;20108;-77
2021/01/29 05:15:50;;;;;;;26.35;6.90;;;10.50;99.90;;;10.69;95.51;99097.00;4806760;29;20058;-76
2021/01/29 05:19:00;;;;;;;24.48;5.68;;;10.50;99.90;;;10.34;95.71;99083.19;4822405;29;20535;-76
2021/01/29 05:21:57;;;;;;;33.08;6.28;;;10.40;99.90;;;10.38;96.30;99080.41;4822307;29;20516;-76
2021/01/29 05:25:06;;;;;;;28.83;6.65;;;10.40;99.90;;;10.47;96.36;99082.75;4822935;29;20154;-76
2021/01/29 05:28:40;;;;;;;30.08;6.55;;;10.40;99.90;;;10.59;96.25;99105.25;4823552;29;20058;-76
2021/01/29 05:31:47;;;;;;;23.02;5.10;;;10.40;99.90;;;10.57;95.58;99102.69;4770097;30;20116;-76
2021/01/29 05:34:37;;;;;;;22.00;6.07;;;10.50;99.90;;;10.51;96.01;99099.41;4784542;30;20150;-76
2021/01/29 05:37:52;;;;;;;29.98;6.20;;;10.40;99.90;;;10.53;95.93;99089.63;4821730;29;20069;-77
2021/01/29 05:40:42;;;;;;;22.38;5.75;;;10.40;99.90;;;10.50;95.87;99093.22;4821936;29;20054;-76
2021/01/29 05:43:33;;;;;;;26.07;6.53;;;10.40;99.90;;;10.55;96.21;99098.38;4823479;29;20059;-77
2021/01/29 05:46:12;;;;;;;23.25;5.45;;;10.40;99.90;;;10.46;96.08;99091.59;4823445;29;20100;-76
2021/01/29 05:49:17;;;;;;;20.65;5.75;;;10.40;99.90;;;10.63;95.87;99117.47;4823194;29;20061;-77
2021/01/29 05:52:27;;;;;;;25.92;6.10;;;10.50;99.90;;;10.52;95.34;99088.75;4822135;29;20527;-76
2021/01/29 05:55:23;;;;;;;20.92;5.63;;;10.50;99.90;;;10.72;95.13;99106.63;4824988;29;20054;-76
2021/01/29 05:58:54;;;;;;;19.13;5.43;;;10.60;99.90;;;10.75;95.06;99109.16;4813962;29;20477;-76
2021/01/29 06:02:00;;;;;;;;;;;10.60;99.90;;;10.56;95.54;99065.72;4826651;29;20054;-76
2021/01/29 06:04:56;;;;;;;17.63;5.50;;;10.60;99.90;;;10.17;95.76;99007.13;4826221;29;19929;-76
2021/01/29 06:07:43;;;;;;;22.10;6.38;;;10.60;99.90;;;10.54;96.05;99080.78;4824741;29;20054;-74
2021/01/29 06:10:52;;;;;;;23.65;6.07;;;10.50;99.90;;;10.50;96.48;99092.34;4825044;29;20516;-75
2021/01/29 06:13:57;;;;;;;27.70;6.88;;;10.40;99.90;;;10.51;96.90;99094.94;4826073;29;20062;-75
2021/01/29 06:17:17;;;;;;;26.33;6.78;;;10.40;99.90;;;10.02;97.10;99012.88;4826152;29;20058;-75
2021/01/29 06:20:14;;;;;;;27.15;6.72;;;10.40;99.90;;;10.57;97.17;99099.16;4825861;29;20531;-76
2021/01/29 06:23:35;;;;;;;25.10;7.80;;;10.40;99.90;;;10.65;97.05;99107.72;4825900;29;20082;-75
2021/01/29 06:26:25;;;;;;;21.88;6.78;;;10.50;99.90;;;10.57;97.30;99105.31;4798115;29;20069;-76
2021/01/29 06:29:24;;;;;;;26.70;6.77;;;10.50;99.90;;;10.59;97.55;99110.56;4825990;29;20051;-76
2021/01/29 06:32:50;;;;;;;23.80;6.38;;;10.50;99.90;;;10.59;97.35;99118.47;4825784;29;20316;-75
2021/01/29 06:35:41;;;;;;;24.98;6.82;;;10.50;99.90;;;10.02;97.31;99013.75;4825863;29;20145;-76
2021/01/29 06:38:36;;;;;;;33.58;8.48;;;10.50;99.90;;;10.63;97.22;99112.19;4825656;29;20051;-76
2021/01/29 06:41:48;;;;;;;27.33;7.22;;;10.50;99.90;;;10.42;97.54;99091.75;4809077;29;20074;-76
2021/01/29 06:44:47;;;;;;;27.02;8.07;;;10.50;99.90;;;10.64;97.55;99119.22;4808629;29;20061;-77
2021/01/29 06:47:43;;;;;;;32.50;7.82;;;10.50;99.90;;;10.73;97.27;99134.78;4825519;29;20054;-76
2021/01/29 06:50:35;;;;;;;34.05;8.68;;;10.60;99.90;;;10.75;96.81;99140.88;4825601;29;20058;-77
2021/01/29 06:53:43;;;;;;;37.05;8.70;;;10.70;99.90;;;10.65;96.62;99131.50;4825419;29;20111;-76
2021/01/29 06:56:42;;;;;;;41.70;8.82;;;10.60;99.90;;;10.69;96.37;99146.34;4816603;29;20551;-77
2021/01/29 06:59:31;;;;;;;44.75;9.05;;;10.60;99.90;;;10.55;96.82;99135.38;4825439;29;20069;-75
2021/01/29 07:03:05;;;;;;;49.15;9.85;;;10.50;99.90;;;10.58;96.40;99137.91;4824228;29;20058;-76
2021/01/29 07:05:56;;;;;;;48.78;9.50;;;10.40;99.90;;;10.51;95.71;99144.31;4786349;29;20059;-76
2021/01/29 07:08:42;;;;;;;44.85;9.57;;;10.40;99.90;;;10.49;95.25;99143.50;4820077;29;20054;-77
2021/01/29 07:11:50;;;;;;;44.70;10.15;;;10.40;99.90;;;10.51;94.80;99152.25;4824917;29;20050;-76
2021/01/29 07:14:41;;;;;;;54.45;10.68;;;10.40;99.90;;;10.52;94.30;99146.91;4825099;29;20118;-77
2021/01/29 07:17:19;;;;;;;56.13;11.85;;;10.40;99.90;;;10.52;94.29;99146.91;4825245;29;20061;-77
2021/01/29 07:20:17;;;;;;;53.17;11.32;;;10.40;99.90;;;10.51;93.87;99162.84;4825051;29;20475;-76
2021/01/29 07:23:20;;;;;;;53.67;10.40;;;10.40;99.90;;;10.48;93.52;99177.00;4825178;29;20466;-77
2021/01/29 07:26:10;;;;;;;53.97;10.68;;;10.40;99.90;;;10.43;93.18;99178.91;4824934;29;20058;-77
2021/01/29 07:28:58;;;;;;;56.28;10.90;;;10.40;99.90;;;10.41;93.03;99167.53;4824904;29;20069;-77
2021/01/29 07:31:49;;;;;;;62.42;11.75;;;10.40;99.90;;;10.48;92.73;99194.63;4825098;29;20409;-78
2021/01/29 07:34:35;;;;;;;58.53;11.70;;;10.40;99.90;;;10.31;92.42;99175.78;4823632;29;20062;-76
2021/01/29 07:37:47;;;;;;;53.42;12.60;;;10.40;99.90;;;10.42;92.12;99203.59;4824776;29;20119;-78
2021/01/29 07:40:41;;;;;;;52.65;11.25;;;10.40;99.90;;;10.43;91.75;99213.25;4818821;29;20054;-81
2021/01/29 07:43:32;;;;;;;62.30;12.73;;;10.40;99.90;;;10.48;91.53;99194.63;4824694;29;20066;-75
2021/01/29 07:46:28;;;;;;;56.22;11.55;;;10.40;99.90;;;10.32;90.96;99198.63;4824722;29;20058;-82
2021/01/29 07:49:25;;;;;;;64.53;11.60;;;10.40;99.90;;;10.47;90.87;99230.75;4821472;29;20126;-83
2021/01/29 07:52:00;;;;;;;57.63;11.02;;;10.40;99.90;;;10.55;90.32;99238.47;4824632;29;20051;-81
2021/01/29 07:54:54;;;;;;;79.35;13.30;;;10.50;99.90;;;10.52;90.23;99247.34;4823491;29;20062;-84
2021/01/29 07:57:37;;;;;;;56.03;11.73;;;10.40;99.90;;;10.43;90.10;99246.78;4824541;29;20061;-83
2021/01/29 08:00:21;;;;;;;56.10;10.65;;;10.40;99.90;;;10.41;90.00;99251.25;4824470;29;20062;-79
2021/01/29 08:03:25;;;;;;;64.88;11.95;;;10.30;99.90;;;10.34;89.78;99261.09;4823321;29;20591;-75
2021/01/29 08:06:02;;;;;;;64.25;12.45;;;10.30;99.90;;;9.83;89.26;99163.06;4824284;29;20050;-76
2021/01/29 08:08:36;;;;;;;59.03;12.23;;;10.30;99.90;;;10.30;89.18;99266.56;4824317;29;20415;-78
2021/01/29 08:11:08;;;;;;;75.70;12.27;;;10.20;99.90;;;10.34;89.11;99257.59;4823910;29;20515;-77
2021/01/29 08:14:02;;;;;;;67.57;12.07;;;10.30;99.90;;;9.87;88.72;99185.00;4824194;29;20055;-79
2021/01/29 08:16:51;;;;;;;54.92;10.52;;;10.20;99.90;;;9.73;88.32;99164.28;4817910;29;20056;-75
2021/01/29 08:19:27;;;;;;;64.30;12.23;;;10.30;99.90;;;10.28;88.45;99250.72;4823738;29;20050;-78
2021/01/29 08:22:24;;;;;;;65.07;11.20;;;10.20;99.90;;;10.29;88.37;99275.38;4824311;29;20058;-76
2021/01/29 08:25:10;;;;;;;59.33;11.98;;;10.20;99.90;;;10.10;88.06;99245.09;4822824;29;20066;-76
2021/01/29 08:28:15;;;;;;;59.03;10.95;;;10.20;99.90;;;10.24;88.57;99288.69;4822910;29;20539;-75
2021/01/29 08:31:26;;;;;;;79.43;12.50;;;10.20;99.90;;;10.36;88.47;99271.63;4824223;29;20065;-77
2021/01/29 08:35:07;;;;;;;51.83;11.95;;;10.20;99.90;;;10.43;88.12;99287.25;4818613;29;20110;-78
2021/01/29 08:37:48;;;;;;;64.88;11.82;;;10.30;99.90;;;10.41;87.74;99285.59;4823851;29;20057;-78
2021/01/29 08:40:29;;;;;;;;;;;10.30;99.90;;;9.72;87.79;99175.72;4824491;29;20122;-80
2021/01/29 08:43:38;;;;;;;68.93;11.15;;;10.30;99.90;;;10.41;87.86;99285.59;4823945;29;20314;-79
2021/01/29 08:46:24;;;;;;;61.17;11.98;;;10.30;99.90;;;10.38;87.86;99289.19;4823855;29;20497;-78
2021/01/29 08:49:23;;;;;;;70.60;12.75;;;10.30;99.90;;;10.28;88.30;99293.00;4823765;29;20050;-78
2021/01/29 08:51:59;;;;;;;61.67;11.02;;;10.30;99.90;;;9.95;88.69;99241.06;4823794;29;20065;-79
2021/01/29 08:55:13;;;;;;;57.58;11.05;;;10.30;99.90;;;10.43;88.29;99312.84;4823984;29;20062;-78
2021/01/29 08:57:51;;;;;;;61.20;11.80;;;10.30;99.90;;;10.48;88.25;99313.56;4823737;29;20062;-79
2021/01/29 09:00:26;;;;;;;56.00;11.93;;;10.30;99.90;;;10.44;88.03;99319.84;4823610;29;20394;-82
2021/01/29 09:03:07;;;;;;;60.92;12.05;;;10.30;99.90;;;10.39;88.51;99305.91;4823813;29;20074;-71
2021/01/29 09:05:35;;;;;;;;;;;10.30;99.90;;;10.46;88.24;99312.75;4822937;29;20082;-78
2021/01/29 09:08:07;;;;;;;56.03;12.18;;;10.40;99.90;;;10.44;87.90;99312.78;4823721;29;19978;-69
2021/01/29 09:11:00;;;;;;;62.25;12.70;;;10.40;99.90;;;10.45;88.12;99318.94;4823757;29;20141;-75
2021/01/29 09:13:29;;;;;;;53.45;10.88;;;10.40;99.90;;;10.53;87.84;99309.88;4823618;29;20058;-75
2021/01/29 09:16:06;;;;;;;61.80;12.52;;;10.40;99.90;;;10.48;88.33;99322.38;4823680;29;20068;-74
2021/01/29 09:18:41;;;;;;;62.05;12.65;;;10.40;99.90;;;10.48;87.75;99297.69;4823580;29;20508;-77
2021/01/29 09:21:21;;;;;;;63.17;11.73;;;10.50;99.90;;;10.67;87.89;99330.63;4823482;29;20054;-76
2021/01/29 09:24:01;;;;;;;57.40;12.45;;;10.50;99.90;;;10.57;87.67;99318.56;4823883;29;20386;-76
2021/01/29 09:26:32;;;;;;;;;;;10.60;99.90;;;10.74;87.18;99346.25;4823779;29;20496;-77
2021/01/29 09:29:06;;;;;;;51.17;9.75;;;10.60;99.90;;;10.75;87.01;99336.53;4823976;29;19924;-87
2021/01/29 09:31:37;;;;;;;57.65;10.85;;;10.70;99.90;;;10.75;87.04;99348.00;4826571;29;20595;-76
2021/01/29 09:34:12;;;;;;;47.85;9.45;;;10.70;99.90;;;10.66;86.61;99327.13;4825494;29;20074;-77
2021/01/29 09:36:50;;;;;;;46.55;10.98;;;10.70;99.90;;;10.86;86.48;99345.91;4826662;29;20067;-80
2021/01/29 09:39:44;;;;;;;47.95;10.73;;;10.70;99.90;;;10.80;85.87;99353.16;4825451;29;20438;-80
2021/01/29 09:42:22;;;;;;;49.08;10.45;;;10.70;99.90;;;10.87;86.06;99355.59;4826536;29;20420;-78
2021/01/29 09:44:59;;;;;;;55.28;12.05;;;10.80;99.90;;;10.92;86.07;99359.88;4826624;29;20550;-77
2021/01/29 09:47:28;;;;;;;41.60;9.32;;;10.80;99.90;;;10.90;85.70;99334.31;4826311;29;20050;-77
2021/01/29 09:50:03;;;;;;;52.33;9.65;;;10.90;99.90;;;10.94;86.26;99361.53;4826302;29;20062;-75
2021/01/29 09:52:46;;;;;;;54.28;10.98;;;10.90;99.90;;;10.87;85.86;99354.72;4826354;29;20058;-78
2021/01/29 09:55:20;;;;;;;43.70;8.85;;;10.80;99.90;;;10.75;86.02;99357.69;4826523;29;20412;-78
2021/01/29 09:57:58;;;;;;;52.53;11.05;;;10.70;99.90;;;10.93;85.68;99367.75;4826421;29;20069;-82
2021/01/29 10:00:31;;;;;;;45.70;9.70;;;10.80;99.90;;;10.85;85.88;99369.75;4825023;29;20066;-76
2021/01/29 10:03:10;;;;;;;58.13;10.98;;;10.70;99.90;;;10.74;85.82;99361.28;4826060;29;20133;-75
2021/01/29 10:05:46;;;;;;;51.35;12.05;;;10.70;99.90;;;10.73;86.21;99363.03;4826209;29;20461;-75
2021/01/29 10:08:20;;;;;;;50.33;10.10;;;10.70;99.90;;;10.81;85.73;99368.09;4826222;29;20059;-76
2021/01/29 10:11:04;;;;;;;56.20;11.73;;;10.70;99.90;;;10.97;85.16;99385.25;4826151;29;20054;-76
2021/01/29 10:14:02;;;;;;;48.25;9.63;;;10.80;99.90;;;10.94;85.20;99366.81;4825993;29;20059;-76
2021/01/29 10:16:36;;;;;;;52.75;10.60;;;10.80;99.90;;;10.85;85.30;99367.09;4826089;29;20470;-75
2021/01/29 10:19:24;;;;;;;52.88;10.50;;;10.80;99.90;;;10.86;85.54;99366.19;4824654;29;20069;-76
2021/01/29 10:22:22;;;;;;;46.90;9.85;;;10.80;99.90;;;10.76;85.57;99364.75;4825795;29;20070;-75
2021/01/29 10:25:00;;;;;;;56.47;10.68;;;10.70;99.90;;;10.68;85.97;99378.16;4824745;29;20065;-75
2021/01/29 10:27:41;;;;;;;56.95;10.35;;;10.60;99.90;;;10.69;85.90;99376.38;4825695;29;20084;-76
2021/01/29 10:30:16;;;;;;;57.22;11.07;;;10.60;99.90;;;10.67;85.97;99391.44;4824543;29;20067;-80
2021/01/29 10:32:57;;;;;;;48.20;9.85;;;10.50;99.90;;;10.72;85.89;99386.91;4825669;29;20437;-77
2021/01/29 10:35:30;;;;;;;51.95;9.18;;;10.60;99.90;;;10.62;86.00;99373.06;4824327;29;20085;-75
2021/01/29 10:38:07;;;;;;;43.78;9.48;;;10.50;99.90;;;10.68;85.99;99379.97;4825614;29;20068;-75
2021/01/29 10:40:38;;;;;;;43.45;8.90;;;10.50;99.90;;;10.68;85.97;99374.66;4823315;29;20067;-76
2021/01/29 10:43:24;;;;;;;58.63;10.77;;;10.50;99.90;;;10.64;85.77;99378.31;4824525;29;20508;-77
2021/01/29 10:46:34;;;;;;;54.55;10.48;;;10.50;99.90;;;10.56;86.15;99382.94;4824275;29;20058;-77
2021/01/29 10:49:16;;;;;;;46.30;9.32;;;10.50;99.90;;;10.50;86.96;99385.75;4822545;29;20059;-77
2021/01/29 10:51:55;;;;;;;46.83;10.70;;;10.30;99.90;;;10.52;86.29;99376.88;4825805;29;20050;-75
2021/01/29 10:54:26;;;;;;;48.80;10.00;;;10.40;99.90;;;10.57;86.46;99379.38;4825357;29;20054;-75
2021/01/29 10:57:06;;;;;;;46.45;9.63;;;10.40;99.90;;;10.56;86.21;99385.59;4825392;29;20095;-74
2021/01/29 10:59:43;;;;;;;47.92;10.40;;;10.50;99.90;;;10.58;86.56;99383.78;4825443;29;20057;-73
2021/01/29 11:02:19;;;;;;;47.72;9.85;;;10.50;99.90;;;10.01;85.99;99269.97;4824296;29;20875;-73
2021/01/29 11:04:53;;;;;;;56.92;9.75;;;10.50;99.90;;;10.71;86.04;99395.72;4825289;29;20141;-72
2021/01/29 11:07:25;;;;;;;44.28;9.52;;;10.60;99.90;;;10.60;85.70;99369.59;4825157;29;20409;-76
2021/01/29 11:09:59;;;;;;;46.75;9.05;;;10.60;99.90;;;10.79;85.54;99396.38;4825088;29;20508;-75
2021/01/29 11:12:33;;;;;;;42.67;9.13;;;10.60;99.90;;;10.72;85.63;99394.81;4825151;29;20058;-76
2021/01/29 11:15:14;;;;;;;38.08;8.70;;;10.60;99.90;;;10.71;85.54;99403.66;4825094;29;20415;-75
2021/01/29 11:17:54;;;;;;;44.88;8.80;;;10.60;99.90;;;10.61;86.02;99395.13;4823942;29;20062;-76
2021/01/29 11:20:28;;;;;;;47.63;9.25;;;10.50;99.90;;;10.47;86.11;99362.91;4824969;29;20480;-74
2021/01/29 11:23:03;;;;;;;40.45;9.35;;;10.50;99.90;;;10.70;85.66;99396.66;4825272;29;20062;-74
2021/01/29 11:25:54;;;;;;;44.47;9.15;;;10.50;99.90;;;10.45;85.98;99375.31;4825091;29;20054;-74
2021/01/29 11:28:36;;;;;;;42.08;8.68;;;10.50;99.90;;;10.68;86.01;99399.31;4824890;29;20054;-76
2021/01/29 11:31:12;;;;;;;40.83;7.97;;;10.50;99.90;;;10.56;86.05;99410.25;4823786;29;20412;-76
2021/01/29 11:33:43;;;;;;;51.00;9.82;;;10.50;99.90;;;10.57;85.95;99396.13;4824986;29;20153;-74
2021/01/29 11:36:26;;;;;;;38.85;8.32;;;10.50;99.90;;;10.61;85.95;99407.47;4824791;29;20497;-74
2021/01/29 11:39:13;;;;;;;44.35;8.70;;;10.50;99.90;;;10.76;85.60;99412.34;4824424;29;20058;-75